createdAt,value
2023-06-30T00:04:42.165Z,996.8
2023-06-30T00:09:40.635Z,996.6
2023-06-30T00:14:40.448Z,996.7
2023-06-30T00:19:40.498Z,996.2
2023-06-30T00:24:40.381Z,996.1
2023-06-30T00:29:40.041Z,996.6
2023-06-30T00:34:39.730Z,996.5
2023-06-30T00:39:40.299Z,996
2023-06-30T00:44:39.848Z,996.4
2023-06-30T00:49:40.165Z,996.4
2023-06-30T00:54:37.579Z,996.2
2023-06-30T00:59:18.772Z,996.5
2023-06-30T01:04:19.180Z,996.5
2023-06-30T01:09:19.062Z,996.5
2023-06-30T01:14:18.666Z,995.9
2023-06-30T01:19:19.584Z,996.1
2023-06-30T01:24:19.183Z,996.3
2023-06-30T01:29:19.368Z,996.2
2023-06-30T01:34:16.997Z,995.6
2023-06-30T01:39:16.118Z,995.9
2023-06-30T01:44:15.773Z,996.2
2023-06-30T01:49:16.112Z,995.9
2023-06-30T01:54:15.673Z,996.2
2023-06-30T01:59:15.925Z,996.2
2023-06-30T02:04:16.788Z,995.7
2023-06-30T02:09:16.466Z,995.7
2023-06-30T02:14:17.313Z,995.7
2023-06-30T02:19:13.562Z,996.3
2023-06-30T02:24:13.768Z,995.8
2023-06-30T02:29:13.682Z,995.8
2023-06-30T02:34:13.993Z,995.9
2023-06-30T02:39:14.011Z,995.9
2023-06-30T02:44:14.380Z,996.1
2023-06-30T02:49:13.366Z,996.3
2023-06-30T02:54:13.275Z,996.3
2023-06-30T02:59:11.039Z,996.5
2023-06-30T03:01:50.569Z,995.8
2023-06-30T03:05:43.702Z,995.9
2023-06-30T03:10:44.458Z,996.5
2023-06-30T03:15:44.658Z,996.4
2023-06-30T03:20:45.314Z,995.9
2023-06-30T03:25:45.893Z,996.6
2023-06-30T03:30:42.835Z,996.5
2023-06-30T03:35:42.822Z,996
2023-06-30T03:40:42.682Z,996.3
2023-06-30T03:45:42.372Z,996
2023-06-30T03:50:42.822Z,996.2
2023-06-30T03:55:43.033Z,996
2023-06-30T04:00:04.591Z,996.4
2023-06-30T04:05:03.864Z,996.4
2023-06-30T04:10:03.998Z,996.3
2023-06-30T04:15:04.444Z,996.2
2023-06-30T04:20:03.640Z,996.3
2023-06-30T04:25:03.756Z,996
2023-06-30T04:30:04.376Z,996.7
2023-06-30T04:35:04.612Z,996.1
2023-06-30T04:40:02.072Z,996.4
2023-06-30T04:45:01.608Z,996
2023-06-30T04:50:01.222Z,996
2023-06-30T04:55:01.135Z,996
2023-06-30T04:59:40.416Z,996
2023-06-30T05:04:40.123Z,996
2023-06-30T05:09:40.500Z,995.9
2023-06-30T05:14:40.195Z,995.9
2023-06-30T05:19:41.201Z,995.9
2023-06-30T05:24:37.414Z,996.7
2023-06-30T05:29:37.524Z,995.9
2023-06-30T05:34:37.291Z,996
2023-06-30T05:39:37.478Z,996.4
2023-06-30T05:44:37.409Z,996
2023-06-30T05:49:37.382Z,996.1
2023-06-30T05:54:37.173Z,996.2
2023-06-30T05:59:20.464Z,996.3
2023-06-30T06:04:19.969Z,996.3
2023-06-30T06:09:18.852Z,996.7
2023-06-30T06:14:18.460Z,996.6
2023-06-30T06:19:20.291Z,997.1
2023-06-30T06:24:18.613Z,996.8
2023-06-30T06:29:18.895Z,997.1
2023-06-30T06:34:18.123Z,996.9
2023-06-30T06:39:19.473Z,997.3
2023-06-30T06:44:16.900Z,997.5
2023-06-30T06:49:17.119Z,997.1
2023-06-30T06:54:17.045Z,997.6
2023-06-30T06:59:17.193Z,997.6
2023-06-30T07:04:16.681Z,997.2
2023-06-30T07:09:16.523Z,997.2
2023-06-30T07:14:16.987Z,997.2
2023-06-30T07:19:16.560Z,997.2
2023-06-30T07:24:16.688Z,997.2
2023-06-30T07:29:14.320Z,997.3
2023-06-30T07:34:13.598Z,997.7
2023-06-30T07:39:13.683Z,997.7
2023-06-30T07:44:13.674Z,997.7
2023-06-30T07:49:14.004Z,997.4
2023-06-30T07:54:13.939Z,997.8
2023-06-30T07:59:13.881Z,997.6
2023-06-30T08:01:19.664Z,997.6
2023-06-30T08:05:47.012Z,997.8
2023-06-30T08:10:37.885Z,997.9
2023-06-30T08:15:35.728Z,997.9
2023-06-30T08:20:36.730Z,997.5
2023-06-30T08:25:35.959Z,998
2023-06-30T08:30:40.058Z,997.6
2023-06-30T08:35:36.794Z,997.9
2023-06-30T08:40:35.828Z,997.6
2023-06-30T08:45:45.035Z,998.1
2023-06-30T08:50:44.832Z,998
2023-06-30T08:55:45.046Z,998
2023-06-30T09:00:06.587Z,997.5
2023-06-30T09:05:06.546Z,997.4
2023-06-30T09:10:07.103Z,997.8
2023-06-30T09:15:07.714Z,997.9
2023-06-30T09:20:06.838Z,997.8
2023-06-30T09:25:04.150Z,997.3
2023-06-30T09:30:03.640Z,997.8
2023-06-30T09:35:03.901Z,997.7
2023-06-30T09:40:03.316Z,997.3
2023-06-30T09:45:03.128Z,997.3
2023-06-30T09:50:03.537Z,997.2
2023-06-30T09:55:06.676Z,997.2
2023-06-30T09:59:38.649Z,997.2
2023-06-30T10:04:38.169Z,997.2
2023-06-30T10:09:37.729Z,997.8
2023-06-30T10:14:35.590Z,997.7
2023-06-30T10:19:36.241Z,997.5
2023-06-30T10:24:35.574Z,997.7
2023-06-30T10:29:35.734Z,997.6
2023-06-30T10:34:36.409Z,997.2
2023-06-30T10:39:36.149Z,997.4
2023-06-30T10:44:37.361Z,997
2023-06-30T10:49:44.502Z,996.9
2023-06-30T10:54:45.032Z,997.3
2023-06-30T10:59:17.545Z,996.9
2023-06-30T11:04:19.388Z,997.1
2023-06-30T11:09:17.317Z,996.7
2023-06-30T11:14:16.991Z,997.1
2023-06-30T11:19:17.877Z,996.7
2023-06-30T11:24:14.866Z,996.8
2023-06-30T11:29:14.381Z,997.1
2023-06-30T11:34:14.142Z,997
2023-06-30T11:39:14.282Z,996.9
2023-06-30T11:44:13.889Z,997.6
2023-06-30T11:49:13.635Z,997.7
2023-06-30T11:54:13.761Z,997.9
2023-06-30T11:59:13.349Z,997.6
2023-06-30T12:04:14.387Z,997.6
2023-06-30T12:09:09.934Z,997.4
2023-06-30T12:14:09.258Z,997.7
2023-06-30T12:19:09.181Z,999.5
2023-06-30T12:24:08.876Z,998.8
2023-06-30T12:29:08.495Z,998.8
2023-06-30T12:34:08.626Z,1000
2023-06-30T12:39:08.330Z,997.6
2023-06-30T12:44:08.517Z,998.2
2023-06-30T12:49:05.540Z,1000.4
2023-06-30T12:54:05.068Z,997.8
2023-06-30T12:59:05.126Z,997.7
2023-06-30T13:01:11.239Z,1000.3
2023-06-30T13:05:27.759Z,997.5
2023-06-30T13:10:29.037Z,1000.1
2023-06-30T13:15:27.253Z,997.4
2023-06-30T13:20:27.657Z,997.2
2023-06-30T13:25:26.100Z,997.2
2023-06-30T13:30:27.235Z,997.2
2023-06-30T13:35:26.022Z,997.7
2023-06-30T13:40:26.801Z,996.9
2023-06-30T13:45:26.880Z,996.9
2023-06-30T13:50:27.798Z,996.8
2023-06-30T13:55:27.154Z,997
2023-06-30T13:59:49.391Z,996.8
2023-06-30T14:04:48.349Z,996.8
2023-06-30T14:09:47.674Z,997.4
2023-06-30T14:14:48.647Z,998.1
2023-06-30T14:19:48.148Z,996.6
2023-06-30T14:24:47.984Z,996.6
2023-06-30T14:29:48.918Z,996.5
2023-06-30T14:34:48.036Z,998
2023-06-30T14:39:47.875Z,997.9
2023-06-30T14:44:46.753Z,997.9
2023-06-30T14:49:46.084Z,996.6
2023-06-30T14:54:45.690Z,997.8
2023-06-30T14:59:45.867Z,997.8
2023-06-30T15:04:36.063Z,997.5
2023-06-30T15:09:35.554Z,997.6
2023-06-30T15:14:36.293Z,996.4
2023-06-30T15:19:36.189Z,997.5
2023-06-30T15:24:37.305Z,996.9
2023-06-30T15:29:43.883Z,997.3
2023-06-30T15:34:43.765Z,997.5
2023-06-30T15:39:44.099Z,997.5
2023-06-30T15:44:44.680Z,996.4
2023-06-30T15:49:44.633Z,997.2
2023-06-30T15:54:45.543Z,996.4
2023-06-30T15:59:42.919Z,997.3
2023-06-30T16:04:43.668Z,996.3
2023-06-30T16:09:43.130Z,996.6
2023-06-30T16:14:43.620Z,996.9
2023-06-30T16:19:44.041Z,996.8
2023-06-30T16:24:45.867Z,996.3
2023-06-30T16:29:42.516Z,997.2
2023-06-30T16:34:43.153Z,997.1
2023-06-30T16:39:42.614Z,996.6
2023-06-30T16:44:42.647Z,997
2023-06-30T16:49:42.854Z,996.2
2023-06-30T16:54:42.863Z,997
2023-06-30T16:59:40.781Z,997
2023-06-30T17:04:26.322Z,996.2
2023-06-30T17:09:25.852Z,997
2023-06-30T17:14:25.658Z,996.9
2023-06-30T17:19:26.005Z,996.2
2023-06-30T17:24:25.803Z,996.9
2023-06-30T17:29:26.178Z,996.1
2023-06-30T17:34:25.625Z,996.9
2023-06-30T17:39:27.137Z,996.1
2023-06-30T17:44:23.517Z,996.9
2023-06-30T17:49:23.089Z,996.2
2023-06-30T17:54:22.949Z,996.2
2023-06-30T17:59:23.293Z,996.2
2023-06-30T18:04:23.472Z,996.5
2023-06-30T18:09:23.617Z,996.3
2023-06-30T18:14:22.904Z,997
2023-06-30T18:19:22.822Z,997
2023-06-30T18:24:21.618Z,997
2023-06-30T18:29:21.865Z,997
2023-06-30T18:34:21.444Z,996.7
2023-06-30T18:39:21.636Z,997.1
2023-06-30T18:44:21.561Z,996.4
2023-06-30T18:49:21.375Z,996.4
2023-06-30T18:54:21.377Z,996.4
2023-06-30T18:59:21.108Z,996.8
2023-06-30T19:04:21.984Z,996.5
2023-06-30T19:09:18.988Z,997.1
2023-06-30T19:14:18.217Z,996.5
2023-06-30T19:19:19.203Z,996.6
2023-06-30T19:24:17.831Z,997.3
2023-06-30T19:29:17.909Z,997.3
2023-06-30T19:34:17.874Z,997.4
2023-06-30T19:39:17.558Z,997.1
2023-06-30T19:44:17.598Z,996.8
2023-06-30T19:49:15.113Z,996.8
2023-06-30T19:54:14.142Z,996.8
2023-06-30T19:59:14.227Z,997
2023-06-30T20:04:14.306Z,996.9
2023-06-30T20:09:13.868Z,997.6
2023-06-30T20:14:13.621Z,997.6
2023-06-30T20:19:14.483Z,996.9
2023-06-30T20:24:13.930Z,997.6
2023-06-30T20:29:15.072Z,997.6
2023-06-30T20:34:11.395Z,997.1
2023-06-30T20:39:11.020Z,997.4
2023-06-30T20:44:10.961Z,997.9
2023-06-30T20:49:11.306Z,997.2
2023-06-30T20:54:10.954Z,997.2
2023-06-30T20:59:12.300Z,997.7
2023-06-30T21:01:19.186Z,997.8
2023-06-30T21:05:37.109Z,997.8
2023-06-30T21:10:43.730Z,997.7
2023-06-30T21:15:44.625Z,997.1
2023-06-30T21:20:44.586Z,997
2023-06-30T21:25:45.302Z,997.4
2023-06-30T21:30:45.822Z,997.1
2023-06-30T21:35:45.104Z,997.7
2023-06-30T21:40:43.451Z,997.2
2023-06-30T21:45:43.620Z,997.1
2023-06-30T21:50:43.211Z,997
2023-06-30T21:55:43.674Z,997
2023-06-30T22:00:06.700Z,997.6
2023-06-30T22:05:06.358Z,997
2023-06-30T22:10:06.060Z,997.6
2023-06-30T22:15:06.771Z,997.6
2023-06-30T22:20:05.397Z,997
2023-06-30T22:25:02.687Z,997.5
2023-06-30T22:30:03.012Z,997.6
2023-06-30T22:35:02.668Z,997.5
2023-06-30T22:40:02.741Z,997.5
2023-06-30T22:45:03.057Z,997.1
2023-06-30T22:50:02.828Z,997.6
2023-06-30T22:55:03.836Z,997.6
2023-06-30T22:59:38.318Z,997.1
2023-06-30T23:04:38.275Z,997.5
2023-06-30T23:09:38.073Z,997.5
2023-06-30T23:14:38.252Z,996.9
2023-06-30T23:19:37.938Z,997.4
2023-06-30T23:24:38.035Z,997.2
2023-06-30T23:29:37.581Z,996.8
2023-06-30T23:34:37.235Z,997.2
2023-06-30T23:39:35.613Z,997.5
2023-06-30T23:44:45.758Z,997.6
2023-06-30T23:49:45.447Z,996.9
2023-06-30T23:54:45.534Z,997
2023-06-30T23:59:18.592Z,997.2
